Time;durP1;ratioP1;P1;durP2;ratioP2;P2;SDS_P1;SDS_P2;PMS_P1;PMS_P2;Temp;Humidity;BMP_temperature;BMP_pressure;BME280_temperature;BME280_humidity;BME280_pressure;Samples;Min_cycle;Max_cycle;Signal;HPM_P1;HPM_P2
2022/07/10 00:00:26;;;;;;;8.30;0.88;;;15.80;90.30;;;;;;5143457;27;45635;-72
2022/07/10 00:02:53;;;;;;;4.72;0.93;;;15.80;90.30;;;;;;5145023;27;47973;-72
2022/07/10 00:05:20;;;;;;;5.93;0.90;;;15.80;90.20;;;;;;5139113;27;45269;-72
2022/07/10 00:07:48;;;;;;;4.15;1.13;;;15.80;90.30;;;;;;5145842;27;45285;-71
2022/07/10 00:10:15;;;;;;;3.78;0.98;;;15.80;90.30;;;;;;5138951;27;45564;-71
2022/07/10 00:12:42;;;;;;;3.47;0.77;;;15.90;90.30;;;;;;5138267;27;46160;-72
2022/07/10 00:15:11;;;;;;;4.93;1.00;;;15.90;90.40;;;;;;5136142;27;45431;-71
2022/07/10 00:17:39;;;;;;;6.50;1.08;;;15.90;90.50;;;;;;5139401;27;45581;-72
2022/07/10 00:20:07;;;;;;;3.78;0.90;;;16.00;90.60;;;;;;5139197;27;45397;-71
2022/07/10 00:22:35;;;;;;;8.30;1.10;;;16.10;90.60;;;;;;5140415;27;46603;-71
2022/07/10 00:25:01;;;;;;;4.40;0.90;;;16.10;90.20;;;;;;5144664;27;45265;-72
2022/07/10 00:27:28;;;;;;;5.20;1.00;;;16.00;90.40;;;;;;5141878;27;45376;-72
2022/07/10 00:29:56;;;;;;;7.20;1.13;;;16.00;90.60;;;;;;5138509;27;45415;-72
2022/07/10 00:32:24;;;;;;;4.05;0.73;;;16.00;90.80;;;;;;5143868;27;46904;-72
2022/07/10 00:34:51;;;;;;;5.28;1.27;;;16.00;90.90;;;;;;5144577;27;45640;-72
2022/07/10 00:37:20;;;;;;;4.50;0.70;;;15.90;91.20;;;;;;5144291;27;45439;-72
2022/07/10 00:39:47;;;;;;;5.15;0.90;;;15.90;91.10;;;;;;5140103;27;45580;-71
2022/07/10 00:42:15;;;;;;;5.35;1.20;;;16.00;91.10;;;;;;5144549;27;45318;-72
2022/07/10 00:44:43;;;;;;;6.30;1.20;;;15.90;91.10;;;;;;5132518;27;45261;-72
2022/07/10 00:47:11;;;;;;;3.20;0.95;;;16.00;91.40;;;;;;5136807;27;45421;-72
2022/07/10 00:49:40;;;;;;;3.55;0.95;;;15.90;91.20;;;;;;5142578;27;45394;-72
2022/07/10 00:52:08;;;;;;;4.75;1.15;;;15.90;91.50;;;;;;5129704;27;45416;-72
2022/07/10 00:54:36;;;;;;;10.32;1.10;;;15.90;91.50;;;;;;5144079;27;45415;-71
2022/07/10 00:57:05;;;;;;;5.32;1.10;;;15.90;91.40;;;;;;5139785;27;45342;-71
2022/07/10 00:59:32;;;;;;;4.32;1.05;;;16.00;92.00;;;;;;5140478;27;45254;-72
2022/07/10 01:01:59;;;;;;;5.60;1.00;;;16.10;91.60;;;;;;5136798;27;45398;-71
2022/07/10 01:04:26;;;;;;;5.70;1.00;;;16.10;91.60;;;;;;5144820;27;45631;-72
2022/07/10 01:06:54;;;;;;;3.55;0.70;;;16.30;92.00;;;;;;5142690;27;45473;-72
2022/07/10 01:09:21;;;;;;;3.63;0.88;;;16.30;91.60;;;;;;5133047;27;45402;-72
2022/07/10 01:11:48;;;;;;;8.00;1.17;;;16.30;91.10;;;;;;5140247;27;48043;-72
2022/07/10 01:14:16;;;;;;;6.38;1.20;;;16.20;91.40;;;;;;5143625;27;45399;-72
2022/07/10 01:16:43;;;;;;;3.53;0.80;;;16.20;91.50;;;;;;5147519;27;45383;-72
2022/07/10 01:19:10;;;;;;;7.82;1.38;;;16.10;91.10;;;;;;5145485;27;45325;-72
2022/07/10 01:21:38;;;;;;;2.47;0.80;;;16.10;91.40;;;;;;5147886;27;46622;-71
2022/07/10 01:24:07;;;;;;;9.85;1.20;;;16.20;91.70;;;;;;5145907;27;45309;-72
2022/07/10 01:26:34;;;;;;;6.07;0.95;;;16.10;91.10;;;;;;5148250;27;45462;-73
2022/07/10 01:29:04;;;;;;;3.97;0.90;;;16.10;91.00;;;;;;5146131;27;45220;-72
2022/07/10 01:31:31;;;;;;;5.55;1.30;;;16.20;91.00;;;;;;5147210;27;47373;-72
2022/07/10 01:33:59;;;;;;;2.30;0.80;;;16.20;91.10;;;;;;5140064;27;45456;-73
2022/07/10 01:36:28;;;;;;;10.23;1.10;;;16.10;91.00;;;;;;5127165;27;45291;-72
2022/07/10 01:38:57;;;;;;;3.05;0.90;;;16.10;91.10;;;;;;5133517;27;45315;-72
2022/07/10 01:41:25;;;;;;;5.10;0.95;;;16.20;91.30;;;;;;5146929;27;47270;-72
2022/07/10 01:43:52;;;;;;;5.00;0.98;;;16.10;91.50;;;;;;5145151;27;45227;-72
2022/07/10 01:46:19;;;;;;;2.83;0.77;;;16.20;91.40;;;;;;5147686;27;45540;-72
2022/07/10 01:48:46;;;;;;;2.70;0.95;;;16.20;91.40;;;;;;5137783;27;45394;-72
2022/07/10 01:51:14;;;;;;;4.65;1.08;;;16.10;91.50;;;;;;5146715;27;47553;-72
2022/07/10 01:53:41;;;;;;;6.85;1.08;;;16.20;91.60;;;;;;5137264;27;45407;-72
2022/07/10 01:56:12;;;;;;;5.53;0.90;;;16.20;91.60;;;;;;5143874;27;45529;-72
2022/07/10 01:58:39;;;;;;;10.52;1.23;;;16.20;91.90;;;;;;5146572;27;45384;-71
2022/07/10 02:01:06;;;;;;;5.75;1.20;;;16.20;91.80;;;;;;5146945;27;47137;-72
2022/07/10 02:06:18;;;;;;;4.43;0.90;;;16.20;91.90;;;;;;5109167;27;45394;-72
2022/07/10 02:08:44;;;;;;;8.10;1.80;;;16.30;91.50;;;;;;5145472;27;45453;-71
2022/07/10 02:11:13;;;;;;;8.25;1.20;;;16.20;91.80;;;;;;5145654;27;46945;-72
2022/07/10 02:13:40;;;;;;;4.63;0.80;;;16.20;91.50;;;;;;5140559;27;45326;-72
2022/07/10 02:16:07;;;;;;;5.65;0.90;;;16.10;91.40;;;;;;5138587;27;45267;-72
2022/07/10 02:18:35;;;;;;;5.13;0.90;;;16.00;91.50;;;;;;5146136;27;45249;-72
2022/07/10 02:21:02;;;;;;;6.63;1.00;;;16.00;91.50;;;;;;5146364;27;45346;-72
2022/07/10 02:23:29;;;;;;;3.50;0.80;;;16.00;91.80;;;;;;5142991;27;45901;-72
2022/07/10 02:25:56;;;;;;;4.85;1.13;;;15.90;92.20;;;;;;5139089;27;45288;-72
2022/07/10 02:28:24;;;;;;;3.65;0.85;;;15.80;92.00;;;;;;5145068;27;45543;-72
2022/07/10 02:30:51;;;;;;;7.22;0.93;;;15.80;91.90;;;;;;5143862;27;46615;-72
2022/07/10 02:33:18;;;;;;;4.70;0.75;;;15.80;92.00;;;;;;5144705;27;45446;-73
2022/07/10 02:35:45;;;;;;;7.15;0.82;;;15.80;91.80;;;;;;5143618;27;45305;-72
2022/07/10 02:38:12;;;;;;;4.85;0.55;;;15.70;91.90;;;;;;5145831;27;45547;-74
2022/07/10 02:40:39;;;;;;;5.22;0.85;;;15.80;92.10;;;;;;5132577;27;46428;-71
2022/07/10 02:43:05;;;;;;;9.73;1.13;;;15.70;91.70;;;;;;5145704;27;45470;-72
2022/07/10 02:45:33;;;;;;;4.70;1.02;;;15.70;91.90;;;;;;5141655;27;45456;-72
2022/07/10 02:48:00;;;;;;;6.07;1.45;;;15.60;91.80;;;;;;5147042;27;45293;-72
2022/07/10 02:50:27;;;;;;;5.75;1.15;;;15.60;91.70;;;;;;5144483;27;47400;-72
2022/07/10 02:52:54;;;;;;;3.53;0.82;;;15.60;91.70;;;;;;5138851;27;45247;-72
2022/07/10 02:55:21;;;;;;;6.68;0.88;;;15.60;91.70;;;;;;5144668;27;45462;-72
2022/07/10 02:57:48;;;;;;;7.72;1.15;;;15.50;91.90;;;;;;5145754;27;45402;-72
2022/07/10 03:00:15;;;;;;;8.73;1.23;;;15.50;92.10;;;;;;5144889;27;47324;-72
2022/07/10 03:02:43;;;;;;;6.97;1.10;;;15.40;92.10;;;;;;5145931;27;45406;-72
2022/07/10 03:05:10;;;;;;;5.72;0.90;;;15.50;92.30;;;;;;5133487;27;45289;-71
2022/07/10 03:07:37;;;;;;;3.40;1.05;;;15.50;92.40;;;;;;5146193;27;45256;-72
2022/07/10 03:10:04;;;;;;;8.95;1.60;;;15.40;92.50;;;;;;5133978;27;45395;-72
2022/07/10 03:12:31;;;;;;;6.07;1.25;;;15.30;92.40;;;;;;5145823;27;45359;-72
2022/07/10 03:14:59;;;;;;;5.30;1.20;;;15.10;93.70;;;;;;5141191;27;45298;-72
2022/07/10 03:17:26;;;;;;;4.13;0.93;;;15.20;93.60;;;;;;5133720;27;45471;-72
2022/07/10 03:19:54;;;;;;;3.83;1.00;;;15.10;93.80;;;;;;5134930;27;46477;-72
2022/07/10 03:22:21;;;;;;;6.43;1.42;;;15.10;93.90;;;;;;5145802;27;45453;-71
2022/07/10 03:24:48;;;;;;;5.90;1.10;;;15.10;94.00;;;;;;5144716;27;45407;-71
2022/07/10 03:27:15;;;;;;;6.53;1.38;;;15.10;94.00;;;;;;5146143;27;45272;-73
2022/07/10 03:29:42;;;;;;;4.25;1.10;;;15.00;94.00;;;;;;5142962;27;47561;-72
2022/07/10 03:32:09;;;;;;;3.75;1.00;;;15.10;94.20;;;;;;5143662;27;45486;-73
2022/07/10 03:34:36;;;;;;;6.50;1.27;;;15.10;94.60;;;;;;5140471;27;45406;-72
2022/07/10 03:37:05;;;;;;;4.40;1.27;;;15.20;94.40;;;;;;5144692;27;45318;-73
2022/07/10 03:39:32;;;;;;;9.05;1.50;;;15.30;94.40;;;;;;5135102;27;48208;-72
2022/07/10 03:41:59;;;;;;;7.60;1.40;;;15.10;94.20;;;;;;5143672;27;45458;-72
2022/07/10 03:44:26;;;;;;;7.85;1.80;;;15.10;94.50;;;;;;5136316;27;45309;-72
2022/07/10 03:46:53;;;;;;;9.55;1.55;;;15.20;94.60;;;;;;5146119;27;45273;-73
2022/07/10 03:49:19;;;;;;;3.97;1.25;;;15.10;94.50;;;;;;5140897;27;45264;-72
2022/07/10 03:51:46;;;;;;;7.40;1.20;;;15.10;94.80;;;;;;5129295;27;45255;-72
2022/07/10 03:54:14;;;;;;;2.72;0.95;;;15.00;94.90;;;;;;5130055;27;45377;-71
2022/07/10 03:59:25;;;;;;;6.47;1.00;;;14.90;95.00;;;;;;5143689;27;45428;-72
2022/07/10 04:01:52;;;;;;;7.72;1.50;;;15.00;95.40;;;;;;5139518;27;45466;-72
2022/07/10 04:04:19;;;;;;;5.55;1.40;;;15.00;95.40;;;;;;5139533;27;45386;-72
2022/07/10 04:06:46;;;;;;;7.18;1.20;;;14.90;95.40;;;;;;5135463;27;45579;-72
2022/07/10 04:09:14;;;;;;;4.82;1.35;;;15.00;95.40;;;;;;5137946;27;47923;-71
2022/07/10 04:11:42;;;;;;;8.63;1.55;;;14.90;95.20;;;;;;5143195;27;45426;-72
2022/07/10 04:14:09;;;;;;;7.38;1.65;;;15.00;95.30;;;;;;5135402;27;45331;-72
2022/07/10 04:16:36;;;;;;;5.28;1.30;;;15.00;95.40;;;;;;5142385;27;45555;-72
2022/07/10 04:19:03;;;;;;;6.22;1.30;;;14.90;95.40;;;;;;5143555;27;46371;-72
2022/07/10 04:21:30;;;;;;;4.70;1.25;;;14.90;95.60;;;;;;5139023;27;45384;-72
2022/07/10 04:23:56;;;;;;;6.60;1.33;;;14.90;95.80;;;;;;5141576;27;45406;-72
2022/07/10 04:26:25;;;;;;;6.07;1.42;;;14.90;96.00;;;;;;5135034;27;45333;-72
2022/07/10 04:28:51;;;;;;;4.72;1.50;;;15.00;95.80;;;;;;5138757;27;48089;-72
2022/07/10 04:31:18;;;;;;;5.97;1.30;;;15.10;95.80;;;;;;5143240;27;45343;-72
2022/07/10 04:33:45;;;;;;;4.18;1.67;;;15.10;96.00;;;;;;5144713;27;45528;-72
2022/07/10 04:36:11;;;;;;;5.80;1.30;;;15.20;95.70;;;;;;5141459;27;45502;-72
2022/07/10 04:38:38;;;;;;;6.90;1.58;;;15.20;95.90;;;;;;5144043;27;46069;-72
2022/07/10 04:41:05;;;;;;;7.05;1.45;;;15.10;95.70;;;;;;5142488;27;45468;-72
2022/07/10 04:43:34;;;;;;;5.47;1.50;;;15.10;95.70;;;;;;5138357;27;45285;-71
2022/07/10 04:46:00;;;;;;;5.82;1.63;;;15.20;95.70;;;;;;5142773;27;45291;-72
2022/07/10 04:48:27;;;;;;;6.25;1.45;;;15.20;95.80;;;;;;5140050;27;46266;-72
2022/07/10 04:50:54;;;;;;;7.55;1.98;;;15.30;95.70;;;;;;5138708;27;45328;-72
2022/07/10 04:53:22;;;;;;;5.68;1.50;;;15.20;95.60;;;;;;5148563;27;45227;-72
2022/07/10 04:55:49;;;;;;;3.70;1.35;;;15.20;96.40;;;;;;5141477;27;45457;-73
2022/07/10 04:58:16;;;;;;;4.97;1.45;;;15.20;96.30;;;;;;5138166;27;47486;-72
2022/07/10 05:00:44;;;;;;;6.30;1.80;;;15.20;96.40;;;;;;5142837;27;45748;-72
2022/07/10 05:03:10;;;;;;;3.55;1.60;;;15.20;96.40;;;;;;5148031;27;45228;-72
2022/07/10 05:05:37;;;;;;;4.47;1.67;;;15.30;96.60;;;;;;5143556;27;45739;-72
2022/07/10 05:08:04;;;;;;;8.25;1.60;;;15.40;96.50;;;;;;5139276;27;45301;-72
2022/07/10 05:10:31;;;;;;;8.98;1.65;;;15.40;96.30;;;;;;5145690;27;45544;-72
2022/07/10 05:12:58;;;;;;;7.60;1.92;;;15.40;96.80;;;;;;5148650;27;45291;-72
2022/07/10 05:15:25;;;;;;;4.72;1.60;;;15.50;96.40;;;;;;5144553;27;45674;-72
2022/07/10 05:17:53;;;;;;;6.47;1.77;;;15.50;96.40;;;;;;5148398;27;48448;-72
2022/07/10 05:20:20;;;;;;;5.00;1.35;;;15.40;96.30;;;;;;5146312;27;45489;-73
2022/07/10 05:22:47;;;;;;;8.77;1.85;;;15.50;96.40;;;;;;5148225;27;45308;-72
2022/07/10 05:25:13;;;;;;;6.15;1.85;;;15.50;96.10;;;;;;5147047;27;45359;-72
2022/07/10 05:27:40;;;;;;;5.00;1.70;;;15.60;96.10;;;;;;5148323;27;48805;-72
2022/07/10 05:30:08;;;;;;;6.05;1.52;;;15.50;95.80;;;;;;5139527;27;45333;-72
2022/07/10 05:32:35;;;;;;;6.93;1.70;;;15.70;95.80;;;;;;5141647;27;45337;-72
2022/07/10 05:35:03;;;;;;;6.18;2.03;;;15.70;96.00;;;;;;5138762;27;45241;-72
2022/07/10 05:37:30;;;;;;;6.63;1.60;;;15.70;95.80;;;;;;5146661;27;46287;-72
2022/07/10 05:39:56;;;;;;;4.82;1.52;;;15.70;95.90;;;;;;5141679;27;45365;-72
2022/07/10 05:42:23;;;;;;;4.50;1.27;;;15.90;95.50;;;;;;5141443;27;45405;-72
2022/07/10 05:44:50;;;;;;;6.50;1.55;;;16.00;95.20;;;;;;5143735;27;45337;-72
2022/07/10 05:47:17;;;;;;;6.78;1.63;;;16.10;94.90;;;;;;5141041;27;46570;-72
2022/07/10 05:49:43;;;;;;;6.22;1.55;;;16.10;94.40;;;;;;5146655;27;45451;-72
2022/07/10 05:52:12;;;;;;;6.43;1.60;;;16.10;94.40;;;;;;5147835;27;45429;-71
2022/07/10 05:54:39;;;;;;;6.53;1.70;;;16.10;94.90;;;;;;5146170;27;45337;-71
2022/07/10 05:57:06;;;;;;;7.50;1.30;;;16.10;94.50;;;;;;5146357;27;47236;-72
2022/07/10 05:59:34;;;;;;;10.07;1.30;;;16.30;94.80;;;;;;5135167;27;45363;-72
2022/07/10 06:02:01;;;;;;;3.55;1.40;;;16.30;94.50;;;;;;5145973;27;45200;-73
2022/07/10 06:04:28;;;;;;;3.50;1.60;;;16.30;94.10;;;;;;5144340;27;45466;-72
2022/07/10 06:06:54;;;;;;;3.95;1.17;;;16.40;94.00;;;;;;5140604;27;46317;-72
2022/07/10 06:09:23;;;;;;;5.47;1.27;;;16.40;93.50;;;;;;5139922;27;45291;-72
2022/07/10 06:11:49;;;;;;;7.15;1.40;;;16.30;93.20;;;;;;5130592;27;45271;-72
2022/07/10 06:14:16;;;;;;;7.97;2.47;;;16.50;93.60;;;;;;5138498;27;45479;-72
2022/07/10 06:16:43;;;;;;;4.10;1.55;;;16.50;93.40;;;;;;5146162;27;46247;-72
2022/07/10 06:19:10;;;;;;;8.90;1.48;;;16.60;92.90;;;;;;5145469;27;45468;-72
2022/07/10 06:21:36;;;;;;;4.55;1.40;;;16.40;92.80;;;;;;5145714;27;45481;-72
2022/07/10 06:24:04;;;;;;;4.60;1.20;;;16.40;93.30;;;;;;5140402;27;45449;-72
2022/07/10 06:26:32;;;;;;;4.97;1.40;;;16.60;93.40;;;;;;5145316;27;46640;-71
2022/07/10 06:28:59;;;;;;;4.95;1.58;;;16.50;92.90;;;;;;5142566;27;45409;-72
2022/07/10 06:31:25;;;;;;;6.28;1.25;;;16.50;93.70;;;;;;5146352;27;45440;-74
2022/07/10 06:33:52;;;;;;;7.07;1.40;;;16.60;93.40;;;;;;5146104;27;45352;-72
2022/07/10 06:36:19;;;;;;;7.85;1.40;;;16.70;92.90;;;;;;5146532;27;46672;-72
2022/07/10 06:38:45;;;;;;;5.88;1.58;;;16.60;92.90;;;;;;5141436;27;45318;-72
2022/07/10 06:41:12;;;;;;;7.25;1.50;;;16.70;93.00;;;;;;5131716;27;45362;-72
2022/07/10 06:43:40;;;;;;;8.48;2.00;;;16.70;92.90;;;;;;5137500;27;45252;-71
2022/07/10 06:46:07;;;;;;;8.40;1.98;;;16.70;92.90;;;;;;5138196;27;45380;-72
2022/07/10 06:48:35;;;;;;;4.30;1.08;;;16.80;93.00;;;;;;5144282;27;45472;-71
2022/07/10 06:51:02;;;;;;;8.15;1.45;;;16.80;93.00;;;;;;5139215;27;45316;-72
2022/07/10 06:53:29;;;;;;;7.45;1.33;;;16.80;93.00;;;;;;5142670;27;45336;-72
2022/07/10 06:55:56;;;;;;;6.95;1.27;;;16.80;92.70;;;;;;5146524;27;45316;-72
2022/07/10 06:58:23;;;;;;;9.00;1.50;;;16.80;92.90;;;;;;5135142;27;45365;-72
2022/07/10 07:00:51;;;;;;;4.32;1.08;;;16.80;93.00;;;;;;5138620;27;45353;-72
2022/07/10 07:03:17;;;;;;;4.57;1.17;;;16.80;92.50;;;;;;5144134;27;45389;-72
2022/07/10 07:05:44;;;;;;;4.45;1.50;;;16.80;92.50;;;;;;5145547;27;47961;-72
2022/07/10 07:08:13;;;;;;;5.13;1.27;;;16.90;92.90;;;;;;5138093;27;45380;-72
2022/07/10 07:10:40;;;;;;;6.53;1.25;;;16.60;92.80;;;;;;5126243;27;45399;-72
2022/07/10 07:13:09;;;;;;;6.35;1.40;;;16.30;92.80;;;;;;5135783;27;45362;-72
2022/07/10 07:15:39;;;;;;;6.10;1.30;;;16.40;93.50;;;;;;5138405;27;47286;-72
2022/07/10 07:18:12;;;;;;;11.45;1.27;;;16.20;93.20;;;;;;5144948;27;45430;-71
2022/07/10 07:23:24;;;;;;;8.23;1.60;;;16.40;93.50;;;;;;5142704;27;45401;-71
2022/07/10 07:25:51;;;;;;;6.35;1.20;;;16.30;93.60;;;;;;5142954;27;46347;-71
2022/07/10 07:28:19;;;;;;;7.88;1.10;;;16.30;92.80;;;;;;5131355;27;45503;-71
2022/07/10 07:30:47;;;;;;;5.20;1.38;;;16.50;94.10;;;;;;5141426;27;45843;-71
2022/07/10 07:33:16;;;;;;;6.65;1.55;;;16.50;93.90;;;;;;5136443;27;45359;-71
2022/07/10 07:35:43;;;;;;;8.95;1.48;;;16.50;92.90;;;;;;5142899;27;46366;-72
2022/07/10 07:38:10;;;;;;;5.43;1.40;;;16.40;93.20;;;;;;5134316;27;45458;-72
2022/07/10 07:40:38;;;;;;;11.15;1.30;;;16.60;93.30;;;;;;5131707;27;45434;-71
2022/07/10 07:43:06;;;;;;;7.50;1.52;;;16.50;92.90;;;;;;5135209;27;45264;-71
2022/07/10 07:45:33;;;;;;;6.38;1.50;;;16.50;93.20;;;;;;5136553;27;46560;-73
2022/07/10 07:48:01;;;;;;;5.55;1.15;;;16.50;93.10;;;;;;5140884;27;45263;-72
2022/07/10 07:50:32;;;;;;;5.90;1.40;;;16.40;90.60;;;;;;5137692;27;45470;-71
2022/07/10 07:53:00;;;;;;;6.22;1.05;;;16.50;92.10;;;;;;5142063;27;45285;-73
2022/07/10 07:55:28;;;;;;;7.53;1.20;;;17.00;92.40;;;;;;5145182;27;45401;-72
2022/07/10 07:57:56;;;;;;;4.72;1.08;;;16.70;91.40;;;;;;5142657;27;45316;-72
2022/07/10 08:00:24;;;;;;;5.15;1.10;;;16.60;91.90;;;;;;5143175;27;45238;-72
2022/07/10 08:02:52;;;;;;;10.63;1.50;;;16.90;92.90;;;;;;5137346;27;45377;-73
2022/07/10 08:05:19;;;;;;;7.10;0.95;;;16.70;92.40;;;;;;5142045;27;46181;-73
2022/07/10 08:07:50;;;;;;;12.18;1.25;;;16.40;93.00;;;;;;5135477;27;45498;-72
2022/07/10 08:10:18;;;;;;;6.90;1.48;;;16.30;94.10;;;;;;5137396;27;45505;-72
2022/07/10 08:12:46;;;;;;;6.82;1.02;;;16.30;94.20;;;;;;5134929;27;45359;-72
2022/07/10 08:15:16;;;;;;;4.80;1.45;;;16.50;94.50;;;;;;5129010;27;46410;-72
2022/07/10 08:17:43;;;;;;;9.50;1.40;;;16.70;93.90;;;;;;5133394;27;45454;-72
2022/07/10 08:20:13;;;;;;;9.43;1.60;;;16.80;93.40;;;;;;5137526;27;45365;-71
2022/07/10 08:22:40;;;;;;;5.15;1.10;;;16.90;93.40;;;;;;5133295;27;45666;-72
2022/07/10 08:25:09;;;;;;;5.47;1.10;;;16.80;93.00;;;;;;5136455;27;48569;-72
2022/07/10 08:27:37;;;;;;;8.45;1.15;;;16.90;93.60;;;;;;5129162;27;46706;-72
2022/07/10 08:30:04;;;;;;;12.60;1.42;;;16.90;92.50;;;;;;5135977;27;45451;-72
2022/07/10 08:32:31;;;;;;;9.68;1.30;;;17.00;92.40;;;;;;5136849;27;45364;-72
2022/07/10 08:34:59;;;;;;;8.55;1.42;;;16.90;92.60;;;;;;5126386;27;45525;-72
2022/07/10 08:37:26;;;;;;;7.07;1.50;;;16.80;93.00;;;;;;5133753;27;45933;-72
2022/07/10 08:39:52;;;;;;;6.93;2.10;;;16.80;93.00;;;;;;5137393;27;45508;-71
2022/07/10 08:42:22;;;;;;;6.90;1.60;;;17.00;92.50;;;;;;5124886;27;45357;-72
2022/07/10 08:44:49;;;;;;;12.93;1.45;;;16.80;92.50;;;;;;5144314;27;45378;-72
2022/07/10 08:47:16;;;;;;;7.45;1.80;;;16.60;92.90;;;;;;5139639;27;45321;-71
2022/07/10 08:49:47;;;;;;;12.77;1.83;;;16.50;95.10;;;;;;5137538;27;45387;-72
2022/07/10 08:52:32;;;;;;;12.43;1.95;;;16.60;96.00;;;;;;5138093;27;45358;-71
2022/07/10 08:55:00;;;;;;;9.88;1.40;;;16.60;96.10;;;;;;5143274;27;46577;-72
2022/07/10 08:57:31;;;;;;;12.00;1.50;;;16.70;96.10;;;;;;5135603;27;45385;-72
2022/07/10 08:59:58;;;;;;;7.30;1.40;;;16.90;95.50;;;;;;5143342;27;45606;-71
2022/07/10 09:02:25;;;;;;;10.07;1.58;;;17.00;95.10;;;;;;5137523;27;45408;-71
2022/07/10 09:04:52;;;;;;;5.78;1.63;;;16.90;95.10;;;;;;5138890;27;47561;-71
2022/07/10 09:07:19;;;;;;;7.70;2.05;;;16.70;95.10;;;;;;5137083;27;45311;-72
2022/07/10 09:09:55;;;;;;;8.88;1.75;;;16.50;95.70;;;;;;5134402;27;45378;-71
2022/07/10 09:12:22;;;;;;;5.60;1.73;;;16.50;95.40;;;;;;5125628;27;45505;-72
2022/07/10 09:14:52;;;;;;;4.82;1.50;;;16.70;95.50;;;;;;5131081;27;47350;-72
2022/07/10 09:17:19;;;;;;;7.88;2.22;;;16.60;94.40;;;;;;5138361;27;45991;-72
2022/07/10 09:19:46;;;;;;;8.57;1.90;;;16.50;94.80;;;;;;5135736;27;45415;-72
2022/07/10 09:22:14;;;;;;;9.27;2.13;;;16.30;95.50;;;;;;5141269;27;45323;-71
2022/07/10 09:24:42;;;;;;;8.48;1.70;;;16.40;95.50;;;;;;5139722;27;46623;-73
2022/07/10 09:27:10;;;;;;;8.77;2.55;;;16.20;96.10;;;;;;5127243;27;45398;-72
2022/07/10 09:29:47;;;;;;;12.52;1.50;;;16.10;97.60;;;;;;5140761;27;45446;-71
2022/07/10 09:32:16;;;;;;;8.57;2.00;;;15.90;99.90;;;;;;5125747;27;45568;-72
2022/07/10 09:34:44;;;;;;;8.95;2.22;;;15.80;99.90;;;;;;5133820;27;45448;-71
2022/07/10 09:37:21;;;;;;;10.45;1.77;;;15.80;99.90;;;;;;5132575;27;45366;-72
2022/07/10 09:39:53;;;;;;;13.90;2.22;;;15.90;99.90;;;;;;5142498;27;45578;-72
2022/07/10 09:42:28;;;;;;;8.60;1.75;;;16.00;99.90;;;;;;5144857;27;45715;-72
2022/07/10 09:45:17;;;;;;;13.20;2.45;;;15.80;99.90;;;;;;5141296;27;47247;-72
2022/07/10 09:47:47;;;;;;;6.03;2.13;;;15.90;99.90;;;;;;5141799;27;45498;-72
2022/07/10 09:50:26;;;;;;;9.93;2.10;;;15.90;99.90;;;;;;5147357;27;45456;-71
2022/07/10 09:52:54;;;;;;;6.03;1.92;;;15.80;99.90;;;;;;5135229;27;45508;-72
2022/07/10 09:55:22;;;;;;;9.18;2.20;;;15.90;99.90;;;;;;5131140;27;46211;-72
2022/07/10 09:57:55;;;;;;;5.82;1.92;;;15.90;99.90;;;;;;5131595;27;45374;-71
2022/07/10 10:00:25;;;;;;;13.32;2.22;;;16.00;99.90;;;;;;5136193;27;45350;-71
2022/07/10 10:02:56;;;;;;;6.57;2.40;;;16.20;99.90;;;;;;5143671;27;45651;-71
2022/07/10 10:05:31;;;;;;;10.98;2.42;;;16.50;99.90;;;;;;5134622;27;46242;-71
2022/07/10 10:08:01;;;;;;;6.35;2.25;;;16.80;99.90;;;;;;5134040;27;45370;-71
2022/07/10 10:10:29;;;;;;;10.30;1.88;;;17.00;99.90;;;;;;5132620;27;45367;-72
2022/07/10 10:12:59;;;;;;;5.95;1.98;;;17.20;99.90;;;;;;5143193;27;45252;-70
2022/07/10 10:15:27;;;;;;;4.25;1.60;;;17.00;99.90;;;;;;5127925;27;47111;-71
2022/07/10 10:17:56;;;;;;;5.40;1.65;;;17.00;99.90;;;;;;5137910;27;45338;-72
2022/07/10 10:20:38;;;;;;;4.70;1.60;;;17.20;99.90;;;;;;5134928;27;45413;-72
2022/07/10 10:23:05;;;;;;;3.65;1.10;;;17.30;99.90;;;;;;5142509;27;45576;-72
2022/07/10 10:25:34;;;;;;;5.03;1.30;;;17.30;99.90;;;;;;5137365;27;46331;-71
2022/07/10 10:28:03;;;;;;;5.40;1.00;;;17.40;99.90;;;;;;5144265;27;45490;-70
2022/07/10 10:30:31;;;;;;;3.63;1.25;;;17.60;99.90;;;;;;5142001;27;45382;-70
2022/07/10 10:32:59;;;;;;;10.15;1.30;;;17.70;99.90;;;;;;5139503;27;45502;-71
2022/07/10 10:35:46;;;;;;;4.07;1.30;;;17.70;99.90;;;;;;5139193;27;46438;-70
2022/07/10 10:38:13;;;;;;;5.07;1.40;;;17.80;99.90;;;;;;5128982;27;45396;-71
2022/07/10 10:40:40;;;;;;;4.80;1.40;;;17.80;99.90;;;;;;5128479;27;45432;-71
2022/07/10 10:43:20;;;;;;;2.35;1.05;;;17.90;99.90;;;;;;5134680;27;45291;-70
2022/07/10 10:45:48;;;;;;;5.75;1.45;;;17.40;99.90;;;;;;5130812;27;46568;-71
2022/07/10 10:48:20;;;;;;;4.40;1.58;;;17.20;99.90;;;;;;5138314;27;45366;-70
2022/07/10 10:50:48;;;;;;;4.25;1.40;;;17.20;99.90;;;;;;5134838;27;45818;-70
2022/07/10 10:53:16;;;;;;;6.25;1.45;;;17.10;99.90;;;;;;5138988;27;45378;-70
2022/07/10 10:56:21;;;;;;;4.38;1.30;;;17.30;99.90;;;;;;5140302;27;45565;-70
2022/07/10 10:58:48;;;;;;;2.13;1.10;;;17.50;99.90;;;;;;5132499;27;45384;-71
2022/07/10 11:01:26;;;;;;;4.78;1.20;;;17.80;99.90;;;;;;5131865;27;45474;-70
2022/07/10 11:04:19;;;;;;;5.25;1.60;;;17.80;99.90;;;;;;5134896;27;45345;-71
2022/07/10 11:06:48;;;;;;;6.45;1.42;;;17.80;99.90;;;;;;5131457;27;46327;-71
2022/07/10 11:09:27;;;;;;;3.47;1.33;;;17.70;99.90;;;;;;5128869;27;45902;-71
2022/07/10 11:12:05;;;;;;;3.53;1.40;;;17.90;99.90;;;;;;5141509;27;45466;-73
2022/07/10 11:14:33;;;;;;;3.97;1.35;;;18.00;99.90;;;;;;5128272;27;45545;-71
2022/07/10 11:17:00;;;;;;;3.72;1.13;;;18.20;99.60;;;;;;5133391;27;45468;-73
2022/07/10 11:19:30;;;;;;;5.40;1.35;;;18.40;99.20;;;;;;5131781;27;45430;-71
2022/07/10 11:22:12;;;;;;;5.82;1.15;;;18.40;98.00;;;;;;5138902;27;45723;-72
2022/07/10 11:24:55;;;;;;;4.03;1.05;;;18.40;98.30;;;;;;5130293;27;45331;-72
2022/07/10 11:27:50;;;;;;;5.82;1.35;;;18.40;97.60;;;;;;5131605;27;48386;-71
2022/07/10 11:30:17;;;;;;;4.47;1.50;;;18.40;97.60;;;;;;5123091;27;45459;-71
2022/07/10 11:32:44;;;;;;;5.70;1.58;;;18.30;97.50;;;;;;5117990;27;45516;-71
2022/07/10 11:35:13;;;;;;;5.88;1.92;;;18.30;98.00;;;;;;5126677;27;45308;-71
2022/07/10 11:37:50;;;;;;;5.53;1.40;;;18.10;99.90;;;;;;5119554;27;45505;-71
2022/07/10 11:40:19;;;;;;;5.05;1.67;;;17.90;99.90;;;;;;5126672;27;45595;-71
2022/07/10 11:42:50;;;;;;;5.18;1.40;;;17.20;99.90;;;;;;5138611;27;45361;-69
2022/07/10 11:45:29;;;;;;;5.25;1.60;;;17.30;99.90;;;;;;5145180;27;45316;-71
2022/07/10 11:47:57;;;;;;;4.85;1.20;;;17.80;99.90;;;;;;5138558;27;47397;-71
2022/07/10 11:50:26;;;;;;;5.75;1.52;;;18.10;99.90;;;;;;5134320;27;45406;-71
2022/07/10 11:52:54;;;;;;;5.93;1.40;;;18.50;98.40;;;;;;5133546;27;45633;-71
2022/07/10 11:55:22;;;;;;;4.13;1.00;;;18.60;97.10;;;;;;5122046;27;45429;-73
2022/07/10 11:57:50;;;;;;;2.72;1.92;;;18.70;95.40;;;;;;5131999;27;48512;-71
2022/07/10 12:00:24;;;;;;;7.28;1.40;;;18.80;95.20;;;;;;5142638;27;45575;-71
2022/07/10 12:02:51;;;;;;;3.33;1.05;;;18.90;95.40;;;;;;5145080;27;45339;-72
2022/07/10 12:05:34;;;;;;;7.13;1.20;;;18.90;94.70;;;;;;5144168;27;45338;-71
2022/07/10 12:08:01;;;;;;;3.67;1.30;;;18.90;95.70;;;;;;5145377;27;45355;-71
2022/07/10 12:10:28;;;;;;;2.95;1.25;;;18.90;94.70;;;;;;5143552;27;46018;-71
2022/07/10 12:13:03;;;;;;;1.88;1.10;;;19.00;94.80;;;;;;5144836;27;45449;-71
2022/07/10 12:15:36;;;;;;;4.57;1.00;;;18.90;94.50;;;;;;5142123;27;45429;-72
2022/07/10 12:18:03;;;;;;;2.38;1.00;;;18.90;93.70;;;;;;5145210;27;46565;-72
2022/07/10 12:20:30;;;;;;;4.72;1.10;;;18.80;93.70;;;;;;5143384;27;45298;-71
2022/07/10 12:22:59;;;;;;;2.15;0.80;;;18.80;93.50;;;;;;5145355;27;45288;-72
2022/07/10 12:25:26;;;;;;;3.38;1.00;;;18.90;93.90;;;;;;5144716;27;45597;-71
2022/07/10 12:27:57;;;;;;;3.15;1.38;;;19.00;95.20;;;;;;5144857;27;47835;-72
2022/07/10 12:30:24;;;;;;;7.10;1.45;;;19.00;94.20;;;;;;5144378;27;45362;-72
2022/07/10 12:32:51;;;;;;;3.85;1.13;;;19.10;94.20;;;;;;5144691;27;45297;-72
2022/07/10 12:35:20;;;;;;;4.07;1.00;;;19.10;93.80;;;;;;5145493;27;45280;-72
2022/07/10 12:37:50;;;;;;;2.88;1.02;;;19.20;95.30;;;;;;5142944;27;48349;-72
2022/07/10 12:40:33;;;;;;;3.50;1.30;;;19.20;94.90;;;;;;5144758;27;45301;-72
2022/07/10 12:43:05;;;;;;;8.32;1.60;;;19.30;95.40;;;;;;5144875;27;45487;-72
2022/07/10 12:45:32;;;;;;;5.72;1.67;;;19.40;93.90;;;;;;5145300;27;45435;-72
2022/07/10 12:47:58;;;;;;;4.50;1.30;;;19.30;92.80;;;;;;5144236;27;48319;-73
2022/07/10 12:50:26;;;;;;;4.78;1.38;;;19.30;92.90;;;;;;5142436;27;45372;-72
2022/07/10 12:53:08;;;;;;;6.30;1.95;;;19.20;93.70;;;;;;5143692;27;45435;-72
2022/07/10 12:55:38;;;;;;;6.35;1.70;;;19.00;93.40;;;;;;5140593;27;45326;-71
2022/07/10 12:58:11;;;;;;;7.60;1.50;;;19.00;93.30;;;;;;5144859;27;47672;-72
2022/07/10 13:00:45;;;;;;;6.43;1.63;;;18.90;93.30;;;;;;5144395;27;45405;-71